JST457 YBNA-YSSY
Flight info
| Callsign | JST457 |
|---|---|
| Flight time | 1h 10m |
| Altitude | 34000 |
| Route | BNA W494 IDNER H98 SANAD H91 IGDAM H652 BOREE |
| Aircraft | A320/M-SDE3FGHIRWY/LB1 |
Departure
| Time | 2026-05-06 15:12 |
|---|---|
| Airport | Ballina Byron Gateway Airport (YBNA) |
Arrival
| Time | 2026-05-06 16:22 |
|---|---|
| Airport | Sydney Kingsford Smith International Airport (YSSY) |
| Time | Latitude | Longitude | Altitude | Speed | Heading |
|---|---|---|---|---|---|
| 2026-05-06 14:51 | -28.83694 | 153.55616 | 14 ft | 0 kts | 207° |
| 2026-05-06 15:05 | -28.83692 | 153.55617 | 17 ft | 3 kts | 207° |
| 2026-05-06 15:05 | -28.83668 | 153.55627 | 15 ft | 4 kts | 180° |
| 2026-05-06 15:06 | -28.83651 | 153.55623 | 16 ft | 4 kts | 97° |
| 2026-05-06 15:06 | -28.83652 | 153.55612 | 15 ft | 1 kts | 73° |
| 2026-05-06 15:06 | -28.83652 | 153.55611 | 15 ft | 0 kts | 73° |
| 2026-05-06 15:08 | -28.83648 | 153.55626 | 14 ft | 4 kts | 73° |
| 2026-05-06 15:08 | -28.83638 | 153.55665 | 14 ft | 7 kts | 73° |
| 2026-05-06 15:09 | -28.83602 | 153.55696 | 14 ft | 8 kts | 356° |
| 2026-05-06 15:09 | -28.83538 | 153.55676 | 14 ft | 12 kts | 344° |
| 2026-05-06 15:09 | -28.83453 | 153.55664 | 15 ft | 14 kts | 27° |
| 2026-05-06 15:09 | -28.83421 | 153.55766 | 14 ft | 16 kts | 73° |
| 2026-05-06 15:10 | -28.83381 | 153.55918 | 15 ft | 24 kts | 73° |
| 2026-05-06 15:10 | -28.83324 | 153.56138 | 15 ft | 33 kts | 73° |
| 2026-05-06 15:10 | -28.83254 | 153.56403 | 15 ft | 36 kts | 73° |
| 2026-05-06 15:10 | -28.83180 | 153.56688 | 14 ft | 38 kts | 73° |
| 2026-05-06 15:11 | -28.83112 | 153.56946 | 15 ft | 9 kts | 73° |
| 2026-05-06 15:11 | -28.83080 | 153.57007 | 17 ft | 10 kts | 49° |
| 2026-05-06 15:11 | -28.83090 | 153.57031 | 18 ft | 2 kts | 201° |
| 2026-05-06 15:11 | -28.83099 | 153.56997 | 16 ft | 9 kts | 253° |
| 2026-05-06 15:12 | -28.83193 | 153.56634 | 14 ft | 95 kts | 253° |
| 2026-05-06 15:12 | -28.83458 | 153.55630 | 167 ft | 153 kts | 251° |
| 2026-05-06 15:12 | -28.83846 | 153.54480 | 1032 ft | 159 kts | 251° |
| 2026-05-06 15:12 | -28.84233 | 153.53247 | 1706 ft | 174 kts | 253° |
| 2026-05-06 15:13 | -28.84433 | 153.51798 | 2024 ft | 198 kts | 268° |
| 2026-05-06 15:13 | -28.84475 | 153.50118 | 2343 ft | 225 kts | 271° |
| 2026-05-06 15:13 | -28.84488 | 153.48250 | 2873 ft | 248 kts | 270° |
| 2026-05-06 15:13 | -28.84536 | 153.46227 | 3656 ft | 259 kts | 269° |
| 2026-05-06 15:14 | -28.84624 | 153.44167 | 4716 ft | 261 kts | 267° |
| 2026-05-06 15:14 | -28.84741 | 153.42086 | 5558 ft | 265 kts | 266° |
| 2026-05-06 15:14 | -28.84830 | 153.40696 | 5786 ft | 266 kts | 266° |
| 2026-05-06 15:14 | -28.84975 | 153.38598 | 5962 ft | 265 kts | 265° |
| 2026-05-06 15:15 | -28.85128 | 153.36508 | 6011 ft | 264 kts | 265° |
| 2026-05-06 15:15 | -28.85285 | 153.34403 | 6291 ft | 271 kts | 265° |
| 2026-05-06 15:15 | -28.85445 | 153.32275 | 7332 ft | 268 kts | 265° |
| 2026-05-06 15:15 | -28.85603 | 153.30161 | 8362 ft | 268 kts | 265° |
| 2026-05-06 15:16 | -28.85761 | 153.28037 | 9343 ft | 269 kts | 265° |
| 2026-05-06 15:16 | -28.85920 | 153.25904 | 10258 ft | 272 kts | 265° |
| 2026-05-06 15:16 | -28.86088 | 153.23661 | 10606 ft | 295 kts | 266° |
| 2026-05-06 15:16 | -28.86264 | 153.21239 | 10903 ft | 316 kts | 266° |
| 2026-05-06 15:17 | -28.86446 | 153.18705 | 11527 ft | 324 kts | 266° |
| 2026-05-06 15:17 | -28.86632 | 153.16123 | 12267 ft | 329 kts | 267° |
| 2026-05-06 15:17 | -28.86820 | 153.13511 | 13017 ft | 332 kts | 267° |
| 2026-05-06 15:17 | -28.87012 | 153.10870 | 13788 ft | 336 kts | 268° |
| 2026-05-06 15:18 | -28.87394 | 153.08255 | 14449 ft | 343 kts | 257° |
| 2026-05-06 15:18 | -28.88369 | 153.05740 | 15084 ft | 353 kts | 242° |
| 2026-05-06 15:18 | -28.89944 | 153.03546 | 15726 ft | 363 kts | 227° |
| 2026-05-06 15:18 | -28.92037 | 153.01869 | 16364 ft | 373 kts | 213° |
| 2026-05-06 15:19 | -28.94324 | 153.00436 | 17050 ft | 376 kts | 213° |
| 2026-05-06 15:19 | -28.96626 | 152.98990 | 17717 ft | 379 kts | 213° |
| 2026-05-06 15:19 | -28.98944 | 152.97528 | 18389 ft | 382 kts | 213° |
| 2026-05-06 15:19 | -29.01281 | 152.96044 | 18989 ft | 386 kts | 213° |
| 2026-05-06 15:20 | -29.03631 | 152.94549 | 19591 ft | 389 kts | 214° |
| 2026-05-06 15:20 | -29.06007 | 152.93040 | 20209 ft | 392 kts | 214° |
| 2026-05-06 15:20 | -29.08403 | 152.91520 | 20815 ft | 395 kts | 214° |
| 2026-05-06 15:20 | -29.10817 | 152.89988 | 21411 ft | 399 kts | 215° |
| 2026-05-06 15:21 | -29.13249 | 152.88440 | 21992 ft | 402 kts | 215° |
| 2026-05-06 15:21 | -29.15703 | 152.86878 | 22567 ft | 405 kts | 215° |
| 2026-05-06 15:21 | -29.18173 | 152.85307 | 23125 ft | 408 kts | 216° |
| 2026-05-06 15:21 | -29.20660 | 152.83723 | 23656 ft | 411 kts | 216° |
| 2026-05-06 15:22 | -29.23164 | 152.82124 | 24102 ft | 413 kts | 216° |
| 2026-05-06 15:22 | -29.25683 | 152.80515 | 24563 ft | 415 kts | 216° |
| 2026-05-06 15:22 | -29.28214 | 152.78901 | 24998 ft | 418 kts | 216° |
| 2026-05-06 15:22 | -29.30759 | 152.77277 | 25442 ft | 420 kts | 216° |
| 2026-05-06 15:23 | -29.33320 | 152.75642 | 25870 ft | 422 kts | 216° |
| 2026-05-06 15:23 | -29.35889 | 152.73998 | 26285 ft | 424 kts | 217° |
| 2026-05-06 15:23 | -29.38475 | 152.72344 | 26721 ft | 426 kts | 217° |
| 2026-05-06 15:23 | -29.41073 | 152.70683 | 27146 ft | 428 kts | 217° |
| 2026-05-06 15:24 | -29.43681 | 152.69012 | 27570 ft | 430 kts | 217° |
| 2026-05-06 15:24 | -29.46300 | 152.67329 | 27971 ft | 433 kts | 217° |
| 2026-05-06 15:24 | -29.48933 | 152.65637 | 28376 ft | 435 kts | 217° |
| 2026-05-06 15:24 | -29.51584 | 152.63938 | 28805 ft | 437 kts | 217° |
| 2026-05-06 15:25 | -29.54241 | 152.62232 | 29177 ft | 439 kts | 217° |
| 2026-05-06 15:25 | -29.56919 | 152.60512 | 29551 ft | 442 kts | 217° |
| 2026-05-06 15:25 | -29.59612 | 152.58785 | 29940 ft | 444 kts | 217° |
| 2026-05-06 15:25 | -29.62317 | 152.57048 | 30318 ft | 447 kts | 218° |
| 2026-05-06 15:26 | -29.65030 | 152.55300 | 30626 ft | 448 kts | 218° |
| 2026-05-06 15:26 | -29.67762 | 152.53542 | 30952 ft | 450 kts | 218° |
| 2026-05-06 15:26 | -29.70487 | 152.51791 | 31426 ft | 448 kts | 218° |
| 2026-05-06 15:26 | -29.73197 | 152.50050 | 31889 ft | 445 kts | 218° |
| 2026-05-06 15:27 | -29.75895 | 152.48317 | 32268 ft | 444 kts | 219° |
| 2026-05-06 15:27 | -29.78584 | 152.46589 | 32745 ft | 442 kts | 219° |
| 2026-05-06 15:27 | -29.81226 | 152.44886 | 33212 ft | 440 kts | 220° |
| 2026-05-06 15:27 | -29.83887 | 152.43159 | 33727 ft | 438 kts | 220° |
| 2026-05-06 15:28 | -29.86542 | 152.41433 | 34040 ft | 438 kts | 220° |
| 2026-05-06 15:28 | -29.91813 | 152.38012 | 34112 ft | 433 kts | 220° |
| 2026-05-06 15:29 | -29.97050 | 152.34619 | 34112 ft | 431 kts | 220° |
| 2026-05-06 15:29 | -30.02278 | 152.31219 | 34112 ft | 432 kts | 220° |
| 2026-05-06 15:30 | -30.07517 | 152.27816 | 34130 ft | 433 kts | 220° |
| 2026-05-06 15:30 | -30.12764 | 152.24414 | 34133 ft | 432 kts | 220° |
| 2026-05-06 15:31 | -30.18007 | 152.20999 | 34111 ft | 432 kts | 220° |
| 2026-05-06 15:31 | -30.23243 | 152.17587 | 34113 ft | 432 kts | 220° |
| 2026-05-06 15:32 | -30.31090 | 152.12457 | 34119 ft | 432 kts | 220° |
| 2026-05-06 15:32 | -30.36315 | 152.09036 | 34107 ft | 432 kts | 220° |
| 2026-05-06 15:33 | -30.41546 | 152.05608 | 34106 ft | 431 kts | 220° |
| 2026-05-06 15:33 | -30.46775 | 152.02186 | 34108 ft | 432 kts | 220° |
| 2026-05-06 15:34 | -30.51978 | 151.98772 | 34129 ft | 433 kts | 219° |
| 2026-05-06 15:34 | -30.57217 | 151.95326 | 34116 ft | 433 kts | 219° |
| 2026-05-06 15:35 | -30.62462 | 151.91875 | 34117 ft | 434 kts | 219° |
| 2026-05-06 15:35 | -30.67710 | 151.88419 | 34113 ft | 433 kts | 219° |
| 2026-05-06 15:36 | -30.72960 | 151.84959 | 34125 ft | 434 kts | 218° |
| 2026-05-06 15:36 | -30.78211 | 151.81493 | 34111 ft | 434 kts | 218° |
| 2026-05-06 15:37 | -30.83469 | 151.78014 | 34113 ft | 435 kts | 218° |
| 2026-05-06 15:37 | -30.88726 | 151.74531 | 34112 ft | 435 kts | 218° |
| 2026-05-06 15:38 | -30.93981 | 151.71035 | 34134 ft | 435 kts | 218° |
| 2026-05-06 15:38 | -30.99235 | 151.67538 | 34136 ft | 435 kts | 218° |
| 2026-05-06 15:39 | -31.04499 | 151.64045 | 34128 ft | 435 kts | 218° |
| 2026-05-06 15:39 | -31.09760 | 151.60551 | 34109 ft | 435 kts | 218° |
| 2026-05-06 15:40 | -31.15021 | 151.57048 | 34139 ft | 436 kts | 218° |
| 2026-05-06 15:40 | -31.20254 | 151.53565 | 34133 ft | 436 kts | 218° |
| 2026-05-06 15:41 | -31.25517 | 151.50046 | 34127 ft | 436 kts | 218° |
| 2026-05-06 15:41 | -31.30811 | 151.46498 | 34122 ft | 436 kts | 218° |
| 2026-05-06 15:42 | -31.36068 | 151.42970 | 34150 ft | 436 kts | 218° |
| 2026-05-06 15:42 | -31.41562 | 151.39924 | 34141 ft | 446 kts | 209° |
| 2026-05-06 15:43 | -31.47362 | 151.37347 | 34131 ft | 446 kts | 209° |
| 2026-05-06 15:43 | -31.53155 | 151.34763 | 34125 ft | 446 kts | 209° |
| 2026-05-06 15:44 | -31.58945 | 151.32171 | 34145 ft | 446 kts | 209° |
| 2026-05-06 15:44 | -31.64725 | 151.29586 | 34113 ft | 438 kts | 209° |
| 2026-05-06 15:45 | -31.67531 | 151.28342 | 34114 ft | 424 kts | 209° |
| 2026-05-06 15:45 | -31.70255 | 151.27137 | 34113 ft | 415 kts | 209° |
| 2026-05-06 15:45 | -31.75608 | 151.24727 | 34113 ft | 410 kts | 210° |
| 2026-05-06 15:46 | -31.80928 | 151.22310 | 34098 ft | 409 kts | 210° |
| 2026-05-06 15:46 | -31.86250 | 151.19905 | 34117 ft | 410 kts | 210° |
| 2026-05-06 15:47 | -31.91580 | 151.17509 | 34114 ft | 410 kts | 210° |
| 2026-05-06 15:47 | -31.96914 | 151.15109 | 34108 ft | 411 kts | 210° |
| 2026-05-06 15:48 | -32.02255 | 151.12713 | 34136 ft | 411 kts | 211° |
| 2026-05-06 15:48 | -32.07593 | 151.10317 | 34120 ft | 410 kts | 210° |
| 2026-05-06 15:49 | -32.12924 | 151.07919 | 34107 ft | 410 kts | 210° |
| 2026-05-06 15:49 | -32.15606 | 151.06709 | 33532 ft | 414 kts | 210° |
| 2026-05-06 15:49 | -32.18287 | 151.05501 | 33069 ft | 410 kts | 210° |
| 2026-05-06 15:50 | -32.20945 | 151.04311 | 32614 ft | 408 kts | 210° |
| 2026-05-06 15:50 | -32.23590 | 151.03127 | 32169 ft | 406 kts | 210° |
| 2026-05-06 15:50 | -32.26222 | 151.01946 | 31715 ft | 403 kts | 210° |
| 2026-05-06 15:50 | -32.28824 | 151.00778 | 31478 ft | 393 kts | 210° |
| 2026-05-06 15:51 | -32.31327 | 150.99665 | 31253 ft | 379 kts | 210° |
| 2026-05-06 15:51 | -32.33768 | 150.98572 | 31080 ft | 372 kts | 211° |
| 2026-05-06 15:51 | -32.36173 | 150.97482 | 30812 ft | 368 kts | 211° |
| 2026-05-06 15:51 | -32.38558 | 150.96393 | 30487 ft | 366 kts | 211° |
| 2026-05-06 15:52 | -32.40927 | 150.95310 | 30143 ft | 364 kts | 211° |
| 2026-05-06 15:52 | -32.43287 | 150.94230 | 29754 ft | 363 kts | 211° |
| 2026-05-06 15:52 | -32.45632 | 150.93159 | 29368 ft | 361 kts | 211° |
| 2026-05-06 15:52 | -32.47974 | 150.92109 | 28980 ft | 361 kts | 207° |
| 2026-05-06 15:53 | -32.50478 | 150.91544 | 28603 ft | 374 kts | 190° |
| 2026-05-06 15:53 | -32.53107 | 150.91790 | 28208 ft | 383 kts | 179° |
| 2026-05-06 15:53 | -32.55734 | 150.92257 | 27829 ft | 381 kts | 179° |
| 2026-05-06 15:53 | -32.58344 | 150.92730 | 27481 ft | 378 kts | 179° |
| 2026-05-06 15:54 | -32.60939 | 150.93199 | 27100 ft | 376 kts | 179° |
| 2026-05-06 15:54 | -32.63517 | 150.93663 | 26736 ft | 374 kts | 179° |
| 2026-05-06 15:54 | -32.66080 | 150.94120 | 26412 ft | 372 kts | 179° |
| 2026-05-06 15:54 | -32.68633 | 150.94574 | 26062 ft | 370 kts | 179° |
| 2026-05-06 15:55 | -32.71167 | 150.95022 | 25711 ft | 367 kts | 179° |
| 2026-05-06 15:55 | -32.73691 | 150.95472 | 25377 ft | 366 kts | 179° |
| 2026-05-06 15:55 | -32.76197 | 150.95918 | 25014 ft | 362 kts | 179° |
| 2026-05-06 15:55 | -32.78675 | 150.96362 | 24426 ft | 359 kts | 179° |
| 2026-05-06 15:56 | -32.81131 | 150.96797 | 23851 ft | 355 kts | 178° |
| 2026-05-06 15:56 | -32.83562 | 150.97226 | 23225 ft | 352 kts | 178° |
| 2026-05-06 15:56 | -32.85936 | 150.97643 | 22570 ft | 348 kts | 178° |
| 2026-05-06 15:56 | -32.88315 | 150.98062 | 21981 ft | 343 kts | 178° |
| 2026-05-06 15:57 | -32.90666 | 150.98479 | 21698 ft | 350 kts | 178° |
| 2026-05-06 15:57 | -32.93189 | 150.98910 | 21457 ft | 382 kts | 177° |
| 2026-05-06 15:57 | -32.95926 | 150.99377 | 21201 ft | 412 kts | 176° |
| 2026-05-06 15:57 | -32.98829 | 150.99885 | 20938 ft | 425 kts | 176° |
| 2026-05-06 15:58 | -33.01759 | 151.00418 | 20844 ft | 427 kts | 175° |
| 2026-05-06 15:58 | -33.04695 | 151.00960 | 20749 ft | 427 kts | 175° |
| 2026-05-06 15:58 | -33.07630 | 151.01502 | 20655 ft | 426 kts | 175° |
| 2026-05-06 15:58 | -33.10560 | 151.02039 | 20560 ft | 426 kts | 175° |
| 2026-05-06 15:59 | -33.13487 | 151.02570 | 20467 ft | 425 kts | 175° |
| 2026-05-06 15:59 | -33.16407 | 151.03095 | 20384 ft | 424 kts | 175° |
| 2026-05-06 15:59 | -33.19323 | 151.03614 | 20284 ft | 423 kts | 175° |
| 2026-05-06 15:59 | -33.22241 | 151.04133 | 19725 ft | 424 kts | 175° |
| 2026-05-06 16:00 | -33.25167 | 151.04658 | 19001 ft | 426 kts | 175° |
| 2026-05-06 16:00 | -33.28094 | 151.05203 | 18304 ft | 425 kts | 174° |
| 2026-05-06 16:00 | -33.31014 | 151.05766 | 17582 ft | 424 kts | 174° |
| 2026-05-06 16:00 | -33.33911 | 151.06332 | 16930 ft | 421 kts | 174° |
| 2026-05-06 16:01 | -33.36784 | 151.06893 | 16307 ft | 417 kts | 174° |
| 2026-05-06 16:01 | -33.39643 | 151.07447 | 15669 ft | 414 kts | 174° |
| 2026-05-06 16:01 | -33.42478 | 151.07993 | 15039 ft | 411 kts | 174° |
| 2026-05-06 16:01 | -33.45298 | 151.08533 | 14370 ft | 409 kts | 174° |
| 2026-05-06 16:02 | -33.48099 | 151.09074 | 13682 ft | 407 kts | 174° |
| 2026-05-06 16:02 | -33.50883 | 151.09611 | 12970 ft | 403 kts | 174° |
| 2026-05-06 16:02 | -33.53633 | 151.10140 | 12251 ft | 398 kts | 174° |
| 2026-05-06 16:02 | -33.56349 | 151.10662 | 11758 ft | 389 kts | 174° |
| 2026-05-06 16:03 | -33.58966 | 151.11169 | 11492 ft | 374 kts | 174° |
| 2026-05-06 16:03 | -33.60650 | 151.11497 | 11319 ft | 365 kts | 174° |
| 2026-05-06 16:03 | -33.63114 | 151.11976 | 11075 ft | 353 kts | 174° |
| 2026-05-06 16:03 | -33.65524 | 151.12447 | 10834 ft | 349 kts | 174° |
| 2026-05-06 16:04 | -33.67895 | 151.12914 | 10484 ft | 341 kts | 174° |
| 2026-05-06 16:04 | -33.70191 | 151.13368 | 10363 ft | 327 kts | 174° |
| 2026-05-06 16:04 | -33.72397 | 151.13801 | 10241 ft | 315 kts | 174° |
| 2026-05-06 16:04 | -33.74522 | 151.14218 | 10089 ft | 305 kts | 174° |
| 2026-05-06 16:05 | -33.76598 | 151.14623 | 9925 ft | 298 kts | 174° |
| 2026-05-06 16:05 | -33.78649 | 151.15020 | 9803 ft | 299 kts | 174° |
| 2026-05-06 16:05 | -33.80721 | 151.15295 | 9317 ft | 299 kts | 184° |
| 2026-05-06 16:05 | -33.82754 | 151.15016 | 8963 ft | 292 kts | 197° |
| 2026-05-06 16:06 | -33.84728 | 151.14454 | 8625 ft | 289 kts | 197° |
| 2026-05-06 16:06 | -33.86670 | 151.13896 | 8277 ft | 287 kts | 197° |
| 2026-05-06 16:06 | -33.88610 | 151.13335 | 7870 ft | 287 kts | 198° |
| 2026-05-06 16:06 | -33.90570 | 151.12763 | 7358 ft | 291 kts | 197° |
| 2026-05-06 16:07 | -33.92541 | 151.12193 | 6965 ft | 291 kts | 197° |
| 2026-05-06 16:07 | -33.94506 | 151.11627 | 6581 ft | 290 kts | 197° |
| 2026-05-06 16:07 | -33.96457 | 151.11069 | 6309 ft | 285 kts | 197° |
| 2026-05-06 16:07 | -33.98343 | 151.10530 | 6237 ft | 272 kts | 198° |
| 2026-05-06 16:08 | -34.00145 | 151.10011 | 6174 ft | 260 kts | 198° |
| 2026-05-06 16:08 | -34.01872 | 151.09513 | 6067 ft | 251 kts | 198° |
| 2026-05-06 16:08 | -34.03544 | 151.09030 | 5938 ft | 243 kts | 198° |
| 2026-05-06 16:08 | -34.05157 | 151.08569 | 5810 ft | 234 kts | 198° |
| 2026-05-06 16:09 | -34.06711 | 151.08140 | 5682 ft | 226 kts | 194° |
| 2026-05-06 16:09 | -34.08333 | 151.07948 | 4670 ft | 258 kts | 181° |
| 2026-05-06 16:09 | -34.10109 | 151.08575 | 4154 ft | 274 kts | 149° |
| 2026-05-06 16:09 | -34.11427 | 151.10190 | 4007 ft | 269 kts | 120° |
| 2026-05-06 16:10 | -34.11923 | 151.12277 | 3963 ft | 253 kts | 89° |
| 2026-05-06 16:10 | -34.11533 | 151.14232 | 3890 ft | 231 kts | 55° |
| 2026-05-06 16:10 | -34.10619 | 151.15785 | 3592 ft | 228 kts | 47° |
| 2026-05-06 16:10 | -34.09565 | 151.17219 | 3215 ft | 229 kts | 41° |
| 2026-05-06 16:11 | -34.08400 | 151.18543 | 2814 ft | 231 kts | 38° |
| 2026-05-06 16:11 | -34.07164 | 151.19790 | 2442 ft | 232 kts | 32° |
| 2026-05-06 16:11 | -34.05744 | 151.20472 | 2256 ft | 215 kts | 1° |
| 2026-05-06 16:11 | -34.04309 | 151.20325 | 1880 ft | 207 kts | 342° |
| 2026-05-06 16:12 | -34.02970 | 151.19836 | 1536 ft | 197 kts | 338° |
| 2026-05-06 16:12 | -34.01653 | 151.19405 | 1116 ft | 192 kts | 343° |
| 2026-05-06 16:12 | -34.00387 | 151.19103 | 853 ft | 179 kts | 346° |
| 2026-05-06 16:12 | -33.99218 | 151.18793 | 643 ft | 166 kts | 344° |
| 2026-05-06 16:13 | -33.98139 | 151.18515 | 413 ft | 152 kts | 346° |
| 2026-05-06 16:13 | -33.97146 | 151.18250 | 201 ft | 139 kts | 348° |
| 2026-05-06 16:13 | -33.96222 | 151.18011 | 49 ft | 134 kts | 345° |
| 2026-05-06 16:13 | -33.95222 | 151.17728 | 486 ft | 156 kts | 342° |
| 2026-05-06 16:14 | -33.94119 | 151.17418 | 1401 ft | 168 kts | 340° |
| 2026-05-06 16:14 | -33.92996 | 151.16862 | 2196 ft | 184 kts | 332° |
| 2026-05-06 16:14 | -33.91782 | 151.16220 | 2806 ft | 196 kts | 332° |
| 2026-05-06 16:14 | -33.90727 | 151.15222 | 2983 ft | 192 kts | 301° |
| 2026-05-06 16:15 | -33.90413 | 151.13697 | 3011 ft | 192 kts | 264° |
| 2026-05-06 16:15 | -33.90984 | 151.12252 | 3012 ft | 199 kts | 226° |
| 2026-05-06 16:15 | -33.92221 | 151.11462 | 3011 ft | 208 kts | 198° |
| 2026-05-06 16:15 | -33.93700 | 151.11085 | 3019 ft | 235 kts | 193° |
| 2026-05-06 16:16 | -33.95404 | 151.10717 | 3011 ft | 259 kts | 193° |
| 2026-05-06 16:16 | -33.97200 | 151.10339 | 3008 ft | 264 kts | 193° |
| 2026-05-06 16:16 | -33.99011 | 151.09968 | 3007 ft | 265 kts | 193° |
| 2026-05-06 16:16 | -34.00827 | 151.09600 | 3009 ft | 265 kts | 193° |
| 2026-05-06 16:17 | -34.02675 | 151.09247 | 3005 ft | 265 kts | 188° |
| 2026-05-06 16:17 | -34.04530 | 151.09378 | 3007 ft | 269 kts | 174° |
| 2026-05-06 16:17 | -34.06358 | 151.09738 | 3007 ft | 271 kts | 173° |
| 2026-05-06 16:17 | -34.08215 | 151.10143 | 3006 ft | 272 kts | 171° |
| 2026-05-06 16:18 | -34.09933 | 151.11089 | 3006 ft | 275 kts | 142° |
| 2026-05-06 16:18 | -34.11121 | 151.12936 | 3010 ft | 280 kts | 114° |
| 2026-05-06 16:18 | -34.11485 | 151.15236 | 3007 ft | 279 kts | 88° |
| 2026-05-06 16:18 | -34.11228 | 151.17470 | 3001 ft | 260 kts | 66° |
| 2026-05-06 16:19 | -34.10257 | 151.19179 | 2915 ft | 240 kts | 37° |
| 2026-05-06 16:19 | -34.08958 | 151.20343 | 2787 ft | 225 kts | 22° |
| 2026-05-06 16:19 | -34.07504 | 151.20723 | 2632 ft | 209 kts | 356° |
| 2026-05-06 16:19 | -34.06094 | 151.20610 | 2303 ft | 198 kts | 347° |
| 2026-05-06 16:20 | -34.04785 | 151.20325 | 2060 ft | 183 kts | 342° |
| 2026-05-06 16:20 | -34.03617 | 151.19972 | 1798 ft | 166 kts | 338° |
| 2026-05-06 16:20 | -34.02529 | 151.19602 | 1411 ft | 161 kts | 338° |
| 2026-05-06 16:20 | -34.01458 | 151.19312 | 1073 ft | 156 kts | 344° |
| 2026-05-06 16:21 | -34.00408 | 151.19110 | 779 ft | 149 kts | 343° |
| 2026-05-06 16:21 | -33.99434 | 151.18841 | 631 ft | 139 kts | 343° |
| 2026-05-06 16:21 | -33.98504 | 151.18596 | 468 ft | 134 kts | 345° |
| 2026-05-06 16:21 | -33.97583 | 151.18364 | 294 ft | 132 kts | 345° |
| 2026-05-06 16:22 | -33.96677 | 151.18130 | 133 ft | 132 kts | 343° |
| 2026-05-06 16:22 | -33.95799 | 151.17901 | 30 ft | 118 kts | 347° |
| 2026-05-06 16:22 | -33.95140 | 151.17731 | 28 ft | 79 kts | 347° |
| 2026-05-06 16:22 | -33.94709 | 151.17642 | 29 ft | 46 kts | 1° |
| 2026-05-06 16:23 | -33.94485 | 151.17694 | 30 ft | 29 kts | 19° |
| 2026-05-06 16:23 | -33.94315 | 151.17730 | 30 ft | 17 kts | 349° |
| 2026-05-06 16:23 | -33.94190 | 151.17691 | 29 ft | 20 kts | 344° |
| 2026-05-06 16:23 | -33.94039 | 151.17648 | 28 ft | 24 kts | 347° |
| 2026-05-06 16:24 | -33.93894 | 151.17609 | 29 ft | 18 kts | 348° |
| 2026-05-06 16:24 | -33.93762 | 151.17574 | 29 ft | 21 kts | 347° |
| 2026-05-06 16:24 | -33.93650 | 151.17598 | 30 ft | 17 kts | 54° |
| 2026-05-06 16:24 | -33.93653 | 151.17748 | 30 ft | 20 kts | 98° |
| 2026-05-06 16:25 | -33.93606 | 151.17821 | 30 ft | 14 kts | 6° |
| 2026-05-06 16:25 | -33.93532 | 151.17828 | 30 ft | 4 kts | 301° |
| 2026-05-06 16:25 | -33.93526 | 151.17776 | 30 ft | 2 kts | 279° |
| 2026-05-06 16:25 | -33.93525 | 151.17768 | 30 ft | 0 kts | 279° |